createdAt,value
2023-03-22T00:01:49.475Z,77.00
2023-03-22T00:04:18.433Z,74.53
2023-03-22T00:06:49.128Z,79.50
2023-03-22T00:09:18.471Z,78.77
2023-03-22T00:11:51.159Z,80.17
2023-03-22T00:14:20.600Z,81.53
2023-03-22T00:16:49.683Z,72.77
2023-03-22T00:19:18.846Z,73.30
2023-03-22T00:21:49.581Z,72.57
2023-03-22T00:24:18.694Z,84.57
2023-03-22T00:26:48.332Z,67.57
2023-03-22T00:29:17.719Z,75.23
2023-03-22T00:31:47.181Z,73.43
2023-03-22T00:34:16.173Z,73.00
2023-03-22T00:36:45.213Z,82.83
2023-03-22T00:39:15.957Z,84.10
2023-03-22T00:41:45.222Z,98.40
2023-03-22T00:44:14.115Z,85.90
2023-03-22T00:46:42.972Z,92.17
2023-03-22T00:49:12.609Z,101.67
2023-03-22T00:51:42.012Z,96.50
2023-03-22T00:54:11.149Z,97.63
2023-03-22T00:56:45.564Z,111.13
2023-03-22T00:59:16.808Z,128.87
2023-03-22T01:01:46.201Z,108.33
2023-03-22T01:04:18.375Z,97.07
2023-03-22T01:06:47.969Z,95.33
2023-03-22T01:09:16.896Z,101.47
2023-03-22T01:11:48.444Z,90.60
2023-03-22T01:14:17.433Z,95.13
2023-03-22T01:16:48.093Z,102.83
2023-03-22T01:19:17.268Z,96.03
2023-03-22T01:21:46.255Z,93.80
2023-03-22T01:24:15.851Z,83.77
2023-03-22T01:26:44.862Z,75.67
2023-03-22T01:29:15.885Z,81.03
2023-03-22T01:31:45.424Z,79.93
2023-03-22T01:34:15.048Z,77.33
2023-03-22T01:36:44.204Z,82.33
2023-03-22T01:39:13.464Z,75.47
2023-03-22T01:41:43.559Z,81.13
2023-03-22T01:44:19.832Z,89.47
2023-03-22T01:46:50.770Z,78.40
2023-03-22T01:49:25.235Z,75.50
2023-03-22T01:51:57.233Z,79.50
2023-03-22T01:54:59.006Z,81.30
2023-03-22T01:57:48.573Z,80.97
2023-03-22T02:00:24.783Z,76.17
2023-03-22T02:03:27.028Z,90.43
2023-03-22T02:05:56.495Z,80.43
2023-03-22T02:08:27.278Z,91.10
2023-03-22T02:11:02.246Z,97.23
2023-03-22T02:13:52.792Z,86.47
2023-03-22T02:16:56.383Z,83.20
2023-03-22T02:20:06.358Z,97.53
2023-03-22T02:23:17.167Z,94.53
2023-03-22T02:26:27.091Z,80.77
2023-03-22T02:29:02.035Z,79.97
2023-03-22T02:32:02.361Z,78.43
2023-03-22T02:34:49.244Z,89.00
2023-03-22T02:38:00.163Z,93.30
2023-03-22T02:40:36.133Z,102.80
2023-03-22T02:43:15.711Z,93.00
2023-03-22T02:45:49.394Z,99.13
2023-03-22T02:48:24.724Z,99.53
2023-03-22T02:50:56.450Z,84.80
2023-03-22T02:53:31.424Z,83.70
2023-03-22T02:56:05.033Z,90.03
2023-03-22T02:58:55.549Z,87.60
2023-03-22T03:01:27.428Z,87.50
2023-03-22T03:04:01.394Z,102.70
2023-03-22T03:06:38.965Z,114.00
2023-03-22T03:09:09.712Z,116.77
2023-03-22T03:11:40.275Z,106.93
2023-03-22T03:14:20.751Z,109.20
2023-03-22T03:16:59.398Z,87.03
2023-03-22T03:19:34.661Z,85.33
2023-03-22T03:22:08.576Z,85.10
2023-03-22T03:24:46.773Z,82.07
2023-03-22T03:27:23.712Z,90.20
2023-03-22T03:29:59.583Z,82.53
2023-03-22T03:32:35.483Z,93.43
2023-03-22T03:35:22.748Z,92.73
2023-03-22T03:37:57.782Z,96.70
2023-03-22T03:40:32.211Z,180.33
2023-03-22T03:43:06.498Z,117.37
2023-03-22T03:45:37.850Z,124.13
2023-03-22T03:48:10.161Z,110.80
2023-03-22T03:50:40.219Z,153.40
2023-03-22T03:53:09.679Z,126.17
2023-03-22T03:55:38.623Z,120.73
2023-03-22T03:58:09.909Z,116.70
2023-03-22T04:00:39.772Z,110.77
2023-03-22T04:03:27.507Z,109.53
2023-03-22T04:06:11.616Z,103.67
2023-03-22T04:08:46.543Z,90.60
2023-03-22T04:11:18.169Z,83.37
2023-03-22T04:13:56.596Z,91.57
2023-03-22T04:16:26.064Z,176.73
2023-03-22T04:18:55.471Z,106.80
2023-03-22T04:21:24.675Z,309.03
2023-03-22T04:23:59.205Z,168.60
2023-03-22T04:26:31.045Z,90.10
2023-03-22T04:29:27.517Z,125.63
2023-03-22T04:32:02.834Z,112.40
2023-03-22T04:34:42.179Z,107.47
2023-03-22T04:37:16.738Z,106.90
2023-03-22T04:39:53.756Z,114.17
2023-03-22T04:42:38.042Z,124.67
2023-03-22T04:45:18.931Z,103.07
2023-03-22T04:47:56.266Z,104.53
2023-03-22T04:50:28.434Z,102.63
2023-03-22T04:53:02.148Z,94.93
2023-03-22T04:55:34.320Z,97.10
2023-03-22T04:58:04.207Z,92.60
2023-03-22T05:00:34.780Z,85.30
2023-03-22T05:03:04.664Z,82.27
2023-03-22T05:05:52.818Z,74.53
2023-03-22T05:08:25.161Z,72.67
2023-03-22T05:11:15.441Z,75.73
2023-03-22T05:13:50.141Z,75.30
2023-03-22T05:16:20.871Z,76.53
2023-03-22T05:18:54.698Z,79.40
2023-03-22T05:21:28.522Z,83.30
2023-03-22T05:24:00.975Z,87.10
2023-03-22T05:26:30.147Z,92.07
2023-03-22T05:28:59.219Z,72.60
2023-03-22T05:31:49.709Z,88.40
2023-03-22T05:34:20.611Z,105.87
2023-03-22T05:36:51.682Z,121.00
2023-03-22T05:39:31.612Z,106.07
2023-03-22T05:42:01.524Z,82.03
2023-03-22T05:44:30.702Z,83.90
2023-03-22T05:47:08.566Z,92.37
2023-03-22T05:49:41.827Z,100.53
2023-03-22T05:52:11.212Z,89.17
2023-03-22T05:54:51.204Z,94.93
2023-03-22T05:57:20.111Z,76.07
2023-03-22T05:59:49.337Z,77.63
2023-03-22T06:02:27.429Z,82.97
2023-03-22T06:04:56.562Z,87.53
2023-03-22T06:07:27.278Z,80.07
2023-03-22T06:09:58.810Z,79.80
2023-03-22T06:12:31.524Z,71.37
2023-03-22T06:15:24.590Z,78.53
2023-03-22T06:18:10.028Z,82.60
2023-03-22T06:20:46.049Z,79.90
2023-03-22T06:23:20.224Z,91.20
2023-03-22T06:25:49.811Z,81.13
2023-03-22T06:28:19.444Z,68.40
2023-03-22T06:30:56.724Z,75.87
2023-03-22T06:33:38.123Z,82.10
2023-03-22T06:36:18.618Z,99.87
2023-03-22T06:39:09.638Z,92.63
2023-03-22T06:41:38.889Z,81.67
2023-03-22T06:44:08.122Z,71.03
2023-03-22T06:46:45.436Z,70.73
2023-03-22T06:49:28.205Z,65.40
2023-03-22T06:52:16.056Z,65.90
2023-03-22T06:54:45.121Z,75.47
2023-03-22T06:57:14.934Z,70.57
2023-03-22T06:59:44.004Z,71.83
2023-03-22T07:02:14.305Z,74.43
2023-03-22T07:04:52.068Z,68.77
2023-03-22T07:07:21.140Z,73.80
2023-03-22T07:09:50.750Z,80.27
2023-03-22T07:12:20.087Z,75.40
2023-03-22T07:14:49.638Z,79.07
2023-03-22T07:17:28.601Z,84.53
2023-03-22T07:19:59.207Z,88.53
2023-03-22T07:22:29.552Z,83.53
2023-03-22T07:25:01.290Z,77.53
2023-03-22T07:27:33.230Z,74.50
2023-03-22T07:30:03.589Z,80.27
2023-03-22T07:32:34.601Z,84.97
2023-03-22T07:35:12.836Z,81.97
2023-03-22T07:37:43.530Z,82.70
2023-03-22T07:40:21.864Z,83.27
2023-03-22T07:42:55.757Z,85.43
2023-03-22T07:45:43.747Z,83.60
2023-03-22T07:48:32.545Z,89.70
2023-03-22T07:51:26.496Z,76.30
2023-03-22T07:53:55.961Z,76.27
2023-03-22T07:56:25.377Z,69.60
2023-03-22T07:58:55.594Z,80.77
2023-03-22T08:01:43.665Z,84.93
2023-03-22T08:04:35.663Z,70.13
2023-03-22T08:07:15.903Z,74.43
2023-03-22T08:09:45.357Z,74.10
2023-03-22T08:12:14.630Z,72.37
2023-03-22T08:14:46.227Z,64.67
2023-03-22T08:17:20.844Z,65.00
2023-03-22T08:19:50.390Z,72.77
2023-03-22T08:22:30.289Z,70.07
2023-03-22T08:25:17.862Z,62.37
2023-03-22T08:27:54.377Z,58.17
2023-03-22T08:30:28.537Z,62.70
2023-03-22T08:32:57.663Z,70.83
2023-03-22T08:35:26.665Z,79.13
2023-03-22T08:37:58.181Z,73.67
2023-03-22T08:40:34.515Z,69.10
2023-03-22T08:43:05.020Z,70.53
2023-03-22T08:45:34.683Z,74.23
2023-03-22T08:48:10.522Z,75.27
2023-03-22T08:50:59.080Z,86.83
2023-03-22T08:53:42.191Z,83.53
2023-03-22T08:56:40.409Z,99.40
2023-03-22T08:59:28.148Z,75.47
2023-03-22T09:02:17.761Z,91.63
2023-03-22T09:04:47.446Z,102.20
2023-03-22T09:07:17.703Z,101.43
2023-03-22T09:09:53.833Z,106.37
2023-03-22T09:12:23.435Z,117.70
2023-03-22T09:14:53.850Z,133.83
2023-03-22T09:17:24.143Z,135.73
2023-03-22T09:20:06.031Z,161.90
2023-03-22T09:22:40.912Z,167.03
2023-03-22T09:25:13.532Z,188.00
2023-03-22T09:27:46.510Z,177.30
2023-03-22T09:30:16.181Z,137.30
2023-03-22T09:32:45.309Z,128.93
2023-03-22T09:35:20.254Z,117.03
2023-03-22T09:37:59.037Z,172.13
2023-03-22T09:40:33.398Z,129.10
2023-03-22T09:43:07.486Z,126.07
2023-03-22T09:45:41.196Z,113.00
2023-03-22T09:48:16.267Z,115.17
2023-03-22T09:50:50.036Z,106.80
2023-03-22T09:53:20.428Z,108.23
2023-03-22T09:55:57.758Z,96.63
2023-03-22T09:58:32.797Z,145.67
2023-03-22T10:01:06.895Z,117.33
2023-03-22T10:04:13.534Z,97.63
2023-03-22T10:06:46.299Z,126.57
2023-03-22T10:09:19.761Z,102.20
2023-03-22T10:12:00.466Z,95.83
2023-03-22T10:14:34.783Z,84.37
2023-03-22T10:17:08.036Z,77.63
2023-03-22T10:19:43.399Z,83.30
2023-03-22T10:22:17.073Z,83.80
2023-03-22T10:24:51.578Z,84.93
2023-03-22T10:27:24.514Z,86.10
2023-03-22T10:29:57.121Z,85.77
2023-03-22T10:32:31.711Z,77.10
2023-03-22T10:35:00.809Z,81.33
2023-03-22T10:37:34.525Z,78.50
2023-03-22T10:40:07.971Z,76.93
2023-03-22T10:42:41.425Z,75.70
2023-03-22T10:45:16.144Z,76.87
2023-03-22T10:47:51.591Z,77.70
2023-03-22T10:50:24.219Z,78.13
2023-03-22T10:52:58.319Z,78.97
2023-03-22T10:55:27.735Z,75.50
2023-03-22T10:58:13.477Z,76.13
2023-03-22T11:00:47.436Z,70.73
2023-03-22T11:03:29.942Z,72.20
2023-03-22T11:06:04.533Z,71.70
2023-03-22T11:08:41.537Z,72.23
2023-03-22T11:11:22.230Z,76.00
2023-03-22T11:14:01.797Z,76.43
2023-03-22T11:16:32.210Z,81.87
2023-03-22T11:19:04.284Z,85.70
2023-03-22T11:21:34.840Z,86.27
2023-03-22T11:24:07.429Z,92.87
2023-03-22T11:26:40.906Z,96.47
2023-03-22T11:29:18.086Z,109.53
2023-03-22T11:31:56.132Z,105.20
2023-03-22T11:34:28.132Z,122.47
2023-03-22T11:37:00.797Z,130.53
2023-03-22T11:39:31.110Z,129.53
2023-03-22T11:42:03.937Z,165.67
2023-03-22T11:44:38.383Z,144.27
2023-03-22T11:47:13.292Z,160.57
2023-03-22T11:49:48.521Z,162.13
2023-03-22T11:52:21.877Z,154.37
2023-03-22T11:54:52.472Z,133.17
2023-03-22T11:57:25.174Z,115.17
2023-03-22T12:00:01.632Z,116.70
2023-03-22T12:02:33.044Z,133.27
2023-03-22T12:05:09.735Z,131.77
2023-03-22T12:07:39.778Z,125.53
2023-03-22T12:10:15.036Z,133.20
2023-03-22T12:12:48.008Z,115.67
2023-03-22T12:15:23.464Z,113.47
2023-03-22T12:17:59.920Z,134.10
2023-03-22T12:20:39.646Z,125.00
2023-03-22T12:23:16.462Z,134.63
2023-03-22T12:25:49.830Z,124.37
2023-03-22T12:28:22.359Z,127.37
2023-03-22T12:30:56.481Z,117.70
2023-03-22T12:33:28.967Z,122.17
2023-03-22T12:36:00.141Z,137.17
2023-03-22T12:38:38.647Z,128.00
2023-03-22T12:41:12.873Z,117.07
2023-03-22T12:43:51.134Z,101.40
2023-03-22T12:46:25.397Z,101.47
2023-03-22T12:49:02.481Z,103.37
2023-03-22T12:51:31.526Z,101.60
2023-03-22T12:54:03.167Z,103.57
2023-03-22T12:56:38.445Z,103.17
2023-03-22T12:59:14.184Z,105.97
2023-03-22T13:01:51.571Z,116.73
2023-03-22T13:04:32.851Z,146.93
2023-03-22T13:07:48.443Z,119.53
2023-03-22T13:10:48.035Z,133.80
2023-03-22T13:13:46.326Z,129.97
2023-03-22T13:16:34.939Z,113.03
2023-03-22T13:19:27.013Z,105.10
2023-03-22T13:22:16.744Z,95.83
2023-03-22T13:25:01.311Z,110.67
2023-03-22T13:27:43.829Z,104.90
2023-03-22T13:30:23.873Z,113.80
2023-03-22T13:32:56.551Z,83.17
2023-03-22T13:35:30.035Z,76.17
2023-03-22T13:38:04.316Z,78.50
2023-03-22T13:40:38.126Z,75.23
2023-03-22T13:43:24.728Z,81.33
2023-03-22T13:46:08.655Z,80.50
2023-03-22T13:48:46.003Z,75.13
2023-03-22T13:51:22.758Z,77.07
2023-03-22T13:54:00.562Z,79.83
2023-03-22T13:56:34.852Z,77.73
2023-03-22T13:59:05.628Z,81.50
2023-03-22T14:01:37.713Z,80.30
2023-03-22T14:04:12.478Z,110.03
2023-03-22T14:06:53.016Z,83.23
2023-03-22T14:09:28.440Z,78.53
2023-03-22T14:12:04.874Z,81.93
2023-03-22T14:14:41.679Z,76.50
2023-03-22T14:17:19.467Z,82.07
2023-03-22T14:19:49.314Z,65.87
